createdAt,value
2023-05-08T00:00:23.099Z,83.16
2023-05-08T00:01:25.901Z,83.30
2023-05-08T00:02:27.842Z,82.63
2023-05-08T00:03:31.140Z,84.02
2023-05-08T00:04:33.127Z,84.44
2023-05-08T00:05:36.048Z,84.48
2023-05-08T00:06:37.834Z,84.11
2023-05-08T00:07:41.260Z,83.60
2023-05-08T00:08:44.412Z,83.25
2023-05-08T00:09:47.193Z,84.10
2023-05-08T00:10:49.575Z,85.96
2023-05-08T00:11:52.563Z,86.56
2023-05-08T00:12:54.501Z,86.15
2023-05-08T00:13:57.361Z,85.90
2023-05-08T00:14:59.181Z,86.00
2023-05-08T00:16:01.990Z,85.70
2023-05-08T00:17:03.897Z,85.07
2023-05-08T00:18:06.831Z,85.53
2023-05-08T00:19:08.690Z,85.39
2023-05-08T00:20:12.906Z,84.89
2023-05-08T00:21:14.980Z,84.42
2023-05-08T00:22:17.761Z,84.43
2023-05-08T00:23:21.965Z,84.27
2023-05-08T00:24:26.344Z,86.82
2023-05-08T00:25:28.245Z,87.72
2023-05-08T00:26:31.028Z,87.85
2023-05-08T00:27:33.260Z,87.55
2023-05-08T00:28:36.008Z,86.65
2023-05-08T00:29:40.142Z,86.37
2023-05-08T00:30:42.892Z,86.34
2023-05-08T00:31:44.796Z,86.19
2023-05-08T00:32:48.216Z,86.59
2023-05-08T00:33:50.260Z,86.47
2023-05-08T00:34:53.063Z,87.49
2023-05-08T00:35:59.485Z,89.45
2023-05-08T00:37:02.937Z,90.31
2023-05-08T00:38:04.772Z,90.78
2023-05-08T00:39:07.860Z,90.34
2023-05-08T00:40:12.091Z,89.09
2023-05-08T00:41:16.224Z,88.54
2023-05-08T00:42:18.087Z,87.61
2023-05-08T00:43:25.626Z,87.06
2023-05-08T00:44:27.577Z,86.14
2023-05-08T00:45:35.886Z,86.04
2023-05-08T00:46:38.861Z,86.02
2023-05-08T00:47:41.191Z,85.63
2023-05-08T00:48:44.952Z,86.30
2023-05-08T00:49:46.824Z,87.33
2023-05-08T00:50:50.426Z,87.29
2023-05-08T00:51:55.827Z,86.41
2023-05-08T00:52:59.654Z,85.94
2023-05-08T00:54:01.596Z,85.66
2023-05-08T00:55:06.113Z,85.41
2023-05-08T00:56:11.007Z,85.85
2023-05-08T00:57:16.353Z,85.41
2023-05-08T00:58:18.879Z,85.35
2023-05-08T00:59:22.200Z,85.85
2023-05-08T01:00:24.707Z,85.79
2023-05-08T01:01:27.666Z,85.65
2023-05-08T01:02:31.257Z,86.56
2023-05-08T01:03:37.026Z,86.76
2023-05-08T01:04:40.622Z,86.07
2023-05-08T01:05:44.552Z,85.69
2023-05-08T01:06:46.354Z,85.08
2023-05-08T01:07:49.262Z,85.01
2023-05-08T01:08:51.117Z,86.28
2023-05-08T01:09:54.628Z,86.39
2023-05-08T01:11:06.339Z,86.15
2023-05-08T01:12:17.119Z,85.67
2023-05-08T01:13:32.713Z,85.28
2023-05-08T01:14:45.839Z,85.42
2023-05-08T01:15:54.471Z,85.57
2023-05-08T01:17:03.979Z,85.67
2023-05-08T01:18:13.290Z,85.96
2023-05-08T01:19:53.919Z,85.39
2023-05-08T01:21:03.209Z,85.34
2023-05-08T01:22:16.958Z,85.54
2023-05-08T01:23:59.446Z,85.43
2023-05-08T01:25:18.164Z,85.71
2023-05-08T01:26:43.143Z,85.73
2023-05-08T01:28:14.478Z,86.01
2023-05-08T01:29:48.846Z,86.21
2023-05-08T01:31:08.111Z,86.28
2023-05-08T01:32:16.712Z,86.70
2023-05-08T01:33:24.884Z,86.67
2023-05-08T01:34:33.391Z,86.71
2023-05-08T01:35:52.293Z,86.21
2023-05-08T01:37:00.611Z,86.22
2023-05-08T01:38:07.591Z,86.13
2023-05-08T01:39:18.690Z,85.73
2023-05-08T01:40:28.859Z,86.01
2023-05-08T01:41:35.515Z,85.66
2023-05-08T01:42:47.627Z,86.11
2023-05-08T01:43:56.136Z,86.26
2023-05-08T01:45:02.960Z,86.20
2023-05-08T01:46:10.915Z,86.93
2023-05-08T01:47:17.026Z,88.42
2023-05-08T01:48:23.552Z,88.35
2023-05-08T01:49:28.307Z,87.80
2023-05-08T01:50:36.563Z,86.95
2023-05-08T01:51:43.748Z,86.94
2023-05-08T01:52:50.919Z,86.52
2023-05-08T01:53:57.883Z,86.46
2023-05-08T01:55:04.610Z,86.05
2023-05-08T01:56:11.843Z,85.49
2023-05-08T01:57:17.997Z,85.26
2023-05-08T01:58:21.839Z,85.53
2023-05-08T01:59:28.178Z,85.43
2023-05-08T02:00:31.267Z,85.74
2023-05-08T02:01:35.830Z,86.31
2023-05-08T02:02:39.906Z,86.53
2023-05-08T02:03:44.228Z,86.37
2023-05-08T02:04:48.405Z,86.35
2023-05-08T02:05:53.617Z,86.26
2023-05-08T02:06:56.926Z,86.17
2023-05-08T02:08:00.782Z,85.98
2023-05-08T02:09:02.921Z,86.41
2023-05-08T02:10:07.263Z,86.62
2023-05-08T02:11:12.400Z,87.21
2023-05-08T02:12:17.276Z,88.17
2023-05-08T02:13:21.343Z,88.61
2023-05-08T02:14:26.284Z,88.32
2023-05-08T02:15:30.612Z,88.32
2023-05-08T02:16:35.328Z,87.85
2023-05-08T02:17:41.540Z,87.62
2023-05-08T02:18:46.994Z,88.68
2023-05-08T02:19:52.122Z,89.13
2023-05-08T02:20:56.462Z,90.13
2023-05-08T02:22:00.576Z,90.01
2023-05-08T02:23:03.006Z,89.23
2023-05-08T02:24:07.041Z,88.87
2023-05-08T02:25:14.359Z,88.56
2023-05-08T02:26:17.962Z,88.23
2023-05-08T02:27:22.031Z,87.97
2023-05-08T02:28:25.897Z,88.61
2023-05-08T02:29:28.782Z,88.59
2023-05-08T02:30:32.080Z,90.57
2023-05-08T02:31:35.756Z,91.46
2023-05-08T02:32:39.823Z,91.38
2023-05-08T02:33:46.002Z,90.22
2023-05-08T02:35:01.938Z,89.75
2023-05-08T02:36:06.432Z,89.07
2023-05-08T02:37:10.368Z,88.56
2023-05-08T02:38:13.370Z,88.45
2023-05-08T02:39:15.549Z,88.55
2023-05-08T02:40:19.655Z,88.14
2023-05-08T02:41:23.090Z,88.27
2023-05-08T02:42:26.164Z,88.42
2023-05-08T02:43:28.409Z,89.07
2023-05-08T02:44:31.593Z,90.68
2023-05-08T02:45:39.872Z,90.50
2023-05-08T02:46:48.922Z,89.69
2023-05-08T02:48:00.090Z,89.26
2023-05-08T02:49:08.138Z,89.08
2023-05-08T02:50:16.817Z,89.26
2023-05-08T02:51:24.654Z,89.14
2023-05-08T02:52:29.693Z,88.70
2023-05-08T02:53:36.826Z,88.33
2023-05-08T02:54:44.244Z,88.74
2023-05-08T02:55:50.460Z,89.25
2023-05-08T02:56:58.147Z,89.27
2023-05-08T02:58:12.541Z,89.08
2023-05-08T02:59:20.268Z,88.53
2023-05-08T03:00:28.620Z,88.61
2023-05-08T03:01:37.092Z,88.07
2023-05-08T03:02:41.995Z,87.88
2023-05-08T03:03:46.614Z,87.25
2023-05-08T03:04:56.166Z,87.55
2023-05-08T03:06:02.742Z,87.67
2023-05-08T03:07:06.541Z,88.28
2023-05-08T03:08:14.040Z,88.43
2023-05-08T03:09:21.248Z,88.43
2023-05-08T03:10:28.314Z,88.49
2023-05-08T03:11:43.496Z,88.65
2023-05-08T03:12:49.449Z,88.45
2023-05-08T03:13:58.779Z,88.99
2023-05-08T03:15:05.322Z,88.72
2023-05-08T03:16:11.589Z,90.15
2023-05-08T03:17:18.034Z,90.31
2023-05-08T03:18:23.123Z,89.91
2023-05-08T03:19:29.387Z,89.45
2023-05-08T03:20:37.315Z,88.62
2023-05-08T03:21:44.062Z,88.10
2023-05-08T03:22:48.239Z,88.34
2023-05-08T03:23:54.045Z,88.85
2023-05-08T03:24:58.316Z,88.29
2023-05-08T03:26:01.993Z,87.79
2023-05-08T03:27:06.191Z,88.04
2023-05-08T03:28:09.281Z,88.02
2023-05-08T03:29:13.478Z,87.82
2023-05-08T03:30:17.707Z,87.82
2023-05-08T03:31:21.432Z,87.70
2023-05-08T03:32:27.147Z,87.74
2023-05-08T03:33:30.689Z,87.99
2023-05-08T03:34:34.956Z,88.15
2023-05-08T03:35:39.778Z,88.36
2023-05-08T03:36:43.023Z,88.29
2023-05-08T03:37:45.025Z,89.10
2023-05-08T03:38:48.192Z,88.69
2023-05-08T03:39:51.543Z,88.44
2023-05-08T03:40:54.509Z,90.21
2023-05-08T03:41:56.978Z,92.69
2023-05-08T03:43:02.745Z,92.71
2023-05-08T03:44:07.923Z,91.43
2023-05-08T03:45:11.301Z,90.47
2023-05-08T03:46:14.855Z,90.07
2023-05-08T03:47:17.983Z,89.33
2023-05-08T03:48:22.571Z,89.28
2023-05-08T03:49:26.321Z,88.65
2023-05-08T03:50:29.520Z,88.40
2023-05-08T03:51:33.257Z,88.78
2023-05-08T03:52:36.119Z,88.66
2023-05-08T03:53:38.082Z,87.96
2023-05-08T03:54:40.985Z,88.14
2023-05-08T03:55:42.925Z,88.12
2023-05-08T03:56:46.058Z,88.03
2023-05-08T03:57:57.157Z,87.89
2023-05-08T03:59:08.905Z,87.53
2023-05-08T04:00:19.192Z,87.49
2023-05-08T04:01:25.943Z,87.46
2023-05-08T04:02:32.867Z,87.79
2023-05-08T04:03:51.163Z,88.05
2023-05-08T04:04:59.376Z,88.14
2023-05-08T04:06:08.435Z,88.01
2023-05-08T04:07:15.847Z,87.55
2023-05-08T04:08:23.507Z,87.32
2023-05-08T04:09:31.777Z,87.18
2023-05-08T04:10:39.746Z,87.28
2023-05-08T04:11:47.384Z,87.09
2023-05-08T04:12:58.195Z,86.87
2023-05-08T04:14:02.165Z,87.19
2023-05-08T04:15:10.073Z,87.04
2023-05-08T04:16:19.872Z,86.81
2023-05-08T04:17:35.679Z,86.66
2023-05-08T04:18:42.866Z,86.82
2023-05-08T04:19:49.409Z,86.93
2023-05-08T04:20:55.924Z,86.64
2023-05-08T04:22:06.214Z,86.78
2023-05-08T04:23:12.678Z,86.64
2023-05-08T04:24:18.000Z,86.52
2023-05-08T04:25:20.261Z,86.31
2023-05-08T04:26:23.134Z,87.12
2023-05-08T04:27:26.833Z,87.13
2023-05-08T04:28:29.234Z,86.83
2023-05-08T04:29:33.692Z,86.77
2023-05-08T04:30:35.788Z,86.56
2023-05-08T04:31:40.755Z,86.63
2023-05-08T04:32:45.546Z,87.14
2023-05-08T04:33:50.619Z,87.69
2023-05-08T04:34:52.828Z,87.35
2023-05-08T04:35:55.846Z,87.45
2023-05-08T04:36:57.826Z,87.99
2023-05-08T04:38:00.995Z,88.51
2023-05-08T04:39:04.238Z,89.26
2023-05-08T04:40:08.642Z,89.06
2023-05-08T04:41:11.056Z,89.34
2023-05-08T04:42:13.950Z,89.57
2023-05-08T04:43:15.973Z,89.00
2023-05-08T04:44:18.924Z,89.15
2023-05-08T04:45:21.138Z,89.13
2023-05-08T04:46:24.700Z,88.79
2023-05-08T04:47:26.768Z,88.56
2023-05-08T04:48:31.381Z,87.98
2023-05-08T04:49:33.229Z,87.61
2023-05-08T04:50:36.058Z,87.46
2023-05-08T04:51:37.831Z,87.23
2023-05-08T04:52:40.683Z,87.02
2023-05-08T04:53:42.528Z,86.37
2023-05-08T04:54:46.748Z,85.93
2023-05-08T04:55:48.600Z,85.49
2023-05-08T04:56:51.467Z,85.05
2023-05-08T04:57:53.350Z,85.85
2023-05-08T04:58:56.234Z,86.01
2023-05-08T04:59:58.108Z,85.92
2023-05-08T05:01:03.196Z,86.21
2023-05-08T05:02:08.049Z,86.34
2023-05-08T05:03:11.065Z,86.33
2023-05-08T05:04:13.015Z,86.70
2023-05-08T05:05:16.004Z,87.52
2023-05-08T05:06:17.923Z,87.58
2023-05-08T05:07:20.908Z,87.32
2023-05-08T05:08:22.754Z,86.86
2023-05-08T05:09:25.974Z,86.35
2023-05-08T05:10:29.535Z,85.34
2023-05-08T05:11:32.316Z,85.30
2023-05-08T05:12:34.218Z,84.92
2023-05-08T05:13:36.989Z,84.81
2023-05-08T05:14:38.801Z,84.30
2023-05-08T05:15:43.276Z,84.47
2023-05-08T05:16:45.276Z,84.67
2023-05-08T05:17:48.214Z,84.28
2023-05-08T05:18:51.996Z,83.22
2023-05-08T05:19:54.770Z,82.99
2023-05-08T05:20:58.265Z,83.13
2023-05-08T05:22:01.053Z,83.77
2023-05-08T05:23:03.090Z,83.07
2023-05-08T05:24:07.127Z,83.75
2023-05-08T05:25:09.799Z,83.63
2023-05-08T05:26:14.056Z,84.70
2023-05-08T05:27:15.922Z,85.11
2023-05-08T05:28:18.745Z,86.75
2023-05-08T05:29:20.579Z,90.07
2023-05-08T05:30:23.548Z,90.23
2023-05-08T05:31:25.836Z,90.45
2023-05-08T05:32:28.738Z,90.82
2023-05-08T05:33:30.664Z,90.42
2023-05-08T05:34:33.602Z,90.30
2023-05-08T05:35:35.549Z,89.61
2023-05-08T05:36:38.459Z,88.78
2023-05-08T05:37:40.592Z,88.73
2023-05-08T05:38:43.698Z,88.58
2023-05-08T05:39:45.937Z,88.81
2023-05-08T05:40:49.007Z,87.70
2023-05-08T05:41:52.282Z,87.76
2023-05-08T05:42:55.156Z,89.52
2023-05-08T05:43:56.961Z,92.26
2023-05-08T05:44:59.734Z,93.23
2023-05-08T05:46:04.413Z,93.26
2023-05-08T05:47:10.107Z,91.93
2023-05-08T05:48:12.265Z,91.51
2023-05-08T05:49:15.109Z,92.28
2023-05-08T05:50:18.146Z,91.90
2023-05-08T05:51:20.987Z,90.49
2023-05-08T05:52:22.801Z,90.24
2023-05-08T05:53:25.718Z,88.94
2023-05-08T05:54:28.534Z,88.71
2023-05-08T05:55:31.651Z,88.94
2023-05-08T05:56:33.583Z,89.46
2023-05-08T05:57:37.970Z,90.13
2023-05-08T05:58:44.919Z,90.01
2023-05-08T05:59:47.814Z,89.54
2023-05-08T06:00:49.625Z,89.00
2023-05-08T06:01:52.737Z,89.46
2023-05-08T06:02:55.164Z,89.45
2023-05-08T06:03:58.224Z,88.46
2023-05-08T06:05:00.223Z,87.73
2023-05-08T06:06:03.025Z,87.24
2023-05-08T06:07:04.908Z,86.40
2023-05-08T06:08:08.464Z,85.71
2023-05-08T06:09:10.323Z,85.20
2023-05-08T06:10:13.310Z,84.60
2023-05-08T06:11:15.483Z,84.27
2023-05-08T06:12:18.775Z,84.02
2023-05-08T06:13:22.027Z,83.90
2023-05-08T06:14:25.140Z,83.18
2023-05-08T06:15:27.013Z,84.76
2023-05-08T06:16:30.492Z,85.12
2023-05-08T06:17:32.415Z,84.19
2023-05-08T06:18:35.540Z,85.07
2023-05-08T06:19:37.456Z,87.74
2023-05-08T06:20:40.290Z,88.78
2023-05-08T06:21:42.238Z,88.39
2023-05-08T06:22:45.051Z,87.52
2023-05-08T06:23:46.891Z,86.05
2023-05-08T06:24:49.936Z,85.37
2023-05-08T06:25:51.793Z,84.23
2023-05-08T06:26:54.761Z,84.88
2023-05-08T06:27:56.944Z,87.81
2023-05-08T06:29:01.371Z,88.29
2023-05-08T06:30:04.461Z,87.27
2023-05-08T06:31:07.305Z,86.78
2023-05-08T06:32:09.208Z,85.98
2023-05-08T06:33:12.512Z,85.00
2023-05-08T06:34:14.366Z,85.65
2023-05-08T06:35:18.498Z,85.38
2023-05-08T06:36:20.416Z,86.56
2023-05-08T06:37:23.399Z,87.02
2023-05-08T06:38:25.299Z,86.95
2023-05-08T06:39:28.093Z,85.99
2023-05-08T06:40:30.889Z,84.68
2023-05-08T06:41:32.740Z,84.26
2023-05-08T06:42:35.539Z,83.49
2023-05-08T06:43:37.360Z,82.64
2023-05-08T06:44:41.691Z,81.78
2023-05-08T06:45:44.876Z,81.55
2023-05-08T06:46:46.773Z,82.17
2023-05-08T06:47:49.909Z,82.27
2023-05-08T06:48:51.764Z,83.00
2023-05-08T06:49:55.111Z,84.58
2023-05-08T06:50:56.925Z,86.08
2023-05-08T06:51:59.845Z,85.59
2023-05-08T06:53:02.680Z,84.63
2023-05-08T06:54:08.148Z,83.10
2023-05-08T06:55:10.108Z,81.99
2023-05-08T06:56:12.918Z,80.33
2023-05-08T06:57:16.143Z,80.81
2023-05-08T06:58:19.098Z,80.99
2023-05-08T06:59:21.205Z,81.19
2023-05-08T07:00:26.107Z,82.12
2023-05-08T07:01:27.984Z,82.31
2023-05-08T07:02:30.886Z,82.70
2023-05-08T07:03:33.726Z,84.09
2023-05-08T07:04:35.651Z,86.01
2023-05-08T07:05:38.726Z,86.09
2023-05-08T07:06:40.721Z,85.56
2023-05-08T07:07:43.807Z,85.74
2023-05-08T07:08:45.803Z,85.98
2023-05-08T07:09:48.866Z,86.69
2023-05-08T07:10:50.919Z,86.76
2023-05-08T07:11:53.898Z,85.82
2023-05-08T07:12:56.892Z,85.32
2023-05-08T07:14:00.251Z,86.11
2023-05-08T07:15:13.758Z,86.05
2023-05-08T07:16:19.303Z,85.24
2023-05-08T07:17:22.095Z,84.19
2023-05-08T07:18:25.163Z,82.53
2023-05-08T07:19:27.167Z,81.47
2023-05-08T07:20:30.430Z,81.26
2023-05-08T07:21:32.474Z,80.75
2023-05-08T07:22:35.776Z,80.88
2023-05-08T07:23:38.936Z,82.10
2023-05-08T07:24:41.596Z,82.50
2023-05-08T07:25:44.718Z,82.90
2023-05-08T07:26:47.748Z,83.20
2023-05-08T07:27:49.885Z,82.32
2023-05-08T07:28:54.319Z,81.84
2023-05-08T07:29:57.646Z,80.88
2023-05-08T07:31:00.733Z,79.77
2023-05-08T07:32:07.512Z,79.71
2023-05-08T07:33:10.774Z,80.58
2023-05-08T07:34:13.050Z,81.72
2023-05-08T07:35:16.481Z,82.15
2023-05-08T07:36:19.779Z,81.46
2023-05-08T07:37:23.768Z,80.88
2023-05-08T07:38:26.818Z,80.50
2023-05-08T07:39:28.794Z,80.08
2023-05-08T07:40:31.977Z,80.06
2023-05-08T07:41:36.125Z,80.13
2023-05-08T07:42:39.746Z,79.90
2023-05-08T07:43:43.632Z,79.32
2023-05-08T07:44:54.527Z,79.12
2023-05-08T07:45:58.643Z,80.08
2023-05-08T07:47:00.845Z,79.92
2023-05-08T07:48:05.681Z,79.72
2023-05-08T07:49:09.056Z,80.75
2023-05-08T07:50:11.557Z,80.99
2023-05-08T07:51:14.820Z,79.95
2023-05-08T07:52:16.906Z,78.41
2023-05-08T07:53:19.777Z,79.83
2023-05-08T07:54:25.121Z,79.78
2023-05-08T07:55:28.028Z,79.48
2023-05-08T07:56:30.102Z,81.37
2023-05-08T07:57:38.040Z,81.00
2023-05-08T07:58:40.469Z,80.39
2023-05-08T07:59:43.467Z,80.02
2023-05-08T08:00:45.689Z,80.51
2023-05-08T08:01:48.752Z,81.58
2023-05-08T08:02:50.908Z,80.93
2023-05-08T08:03:55.542Z,79.87
2023-05-08T08:04:57.725Z,79.13
2023-05-08T08:06:00.712Z,78.66
2023-05-08T08:07:03.753Z,78.14
2023-05-08T08:08:05.909Z,78.01
2023-05-08T08:09:09.008Z,77.19
2023-05-08T08:10:11.155Z,76.38
2023-05-08T08:11:14.481Z,76.10
2023-05-08T08:12:19.205Z,75.80
2023-05-08T08:13:22.397Z,76.35
2023-05-08T08:14:27.816Z,76.28
2023-05-08T08:15:30.933Z,76.17
2023-05-08T08:16:34.992Z,77.74
2023-05-08T08:17:38.325Z,78.67
2023-05-08T08:18:41.556Z,78.08
2023-05-08T08:19:44.927Z,77.28
2023-05-08T08:20:48.014Z,76.32
2023-05-08T08:21:50.110Z,76.10
2023-05-08T08:22:53.543Z,75.26
2023-05-08T08:23:56.856Z,74.44
2023-05-08T08:24:59.687Z,74.77
2023-05-08T08:26:02.818Z,74.74
2023-05-08T08:27:04.816Z,75.60
2023-05-08T08:28:08.628Z,75.55
2023-05-08T08:29:10.761Z,75.39
2023-05-08T08:30:18.024Z,76.47
2023-05-08T08:31:21.508Z,76.75
2023-05-08T08:32:25.306Z,75.92
2023-05-08T08:33:27.626Z,74.78
2023-05-08T08:34:30.895Z,74.70
2023-05-08T08:35:36.662Z,74.47
2023-05-08T08:36:39.278Z,74.47
2023-05-08T08:37:42.479Z,74.47
2023-05-08T08:38:45.790Z,74.68
2023-05-08T08:39:48.377Z,75.28
2023-05-08T08:40:51.722Z,75.60
2023-05-08T08:41:53.762Z,75.20
2023-05-08T08:42:56.691Z,74.42
2023-05-08T08:43:58.684Z,73.66
2023-05-08T08:45:02.619Z,75.52
2023-05-08T08:46:12.596Z,76.26
2023-05-08T08:47:16.842Z,75.91
2023-05-08T08:48:23.127Z,75.69
2023-05-08T08:49:29.881Z,74.19
2023-05-08T08:50:34.078Z,73.57
2023-05-08T08:51:46.001Z,72.78
2023-05-08T08:52:56.827Z,73.75
2023-05-08T08:54:05.896Z,73.15
2023-05-08T08:55:12.830Z,72.97
2023-05-08T08:56:16.970Z,73.46
2023-05-08T08:57:21.140Z,74.52
2023-05-08T08:58:32.789Z,74.53
2023-05-08T08:59:39.375Z,74.62
2023-05-08T09:00:43.061Z,74.61
2023-05-08T09:01:49.494Z,74.98
2023-05-08T09:02:52.267Z,75.11
2023-05-08T09:03:55.680Z,74.16
2023-05-08T09:04:58.185Z,75.46
2023-05-08T09:06:02.256Z,74.83
2023-05-08T09:07:07.231Z,75.43
2023-05-08T09:08:11.701Z,75.42
2023-05-08T09:09:16.527Z,74.30
2023-05-08T09:10:20.215Z,74.01
2023-05-08T09:11:25.207Z,74.65
2023-05-08T09:12:28.349Z,74.35
2023-05-08T09:13:31.622Z,74.75
2023-05-08T09:14:34.121Z,75.08
2023-05-08T09:15:38.363Z,73.59
2023-05-08T09:16:45.254Z,73.02
2023-05-08T09:17:50.617Z,72.50
2023-05-08T09:18:56.775Z,72.21
2023-05-08T09:19:59.073Z,71.82
2023-05-08T09:21:02.673Z,71.39
2023-05-08T09:22:09.305Z,71.17
2023-05-08T09:23:14.320Z,71.20
2023-05-08T09:24:16.349Z,70.97
2023-05-08T09:25:19.389Z,71.11
2023-05-08T09:26:28.773Z,70.48
2023-05-08T09:27:36.788Z,70.16
2023-05-08T09:28:39.737Z,70.27
2023-05-08T09:30:07.046Z,69.25
2023-05-08T09:31:13.224Z,69.50
2023-05-08T09:32:18.875Z,68.70
2023-05-08T09:33:23.416Z,70.13
2023-05-08T09:34:30.223Z,71.67
2023-05-08T09:35:40.701Z,72.17
2023-05-08T09:36:43.062Z,71.63
2023-05-08T09:37:50.380Z,71.46
2023-05-08T09:39:01.004Z,70.49
2023-05-08T09:40:19.193Z,69.64
2023-05-08T09:41:21.907Z,68.39
2023-05-08T09:42:25.348Z,67.93
2023-05-08T09:43:36.119Z,67.59
2023-05-08T09:44:48.616Z,66.89
2023-05-08T09:45:53.414Z,68.05
2023-05-08T09:47:13.934Z,68.79
2023-05-08T09:48:16.644Z,71.04
2023-05-08T09:49:22.429Z,70.88
2023-05-08T09:50:31.636Z,70.29
2023-05-08T09:51:37.139Z,68.67
2023-05-08T09:52:47.679Z,67.60
2023-05-08T09:53:54.706Z,68.67
2023-05-08T09:55:00.819Z,67.44
2023-05-08T09:56:03.304Z,66.37
2023-05-08T09:57:13.791Z,70.38
2023-05-08T09:58:17.693Z,70.39
2023-05-08T09:59:24.351Z,69.14
2023-05-08T10:00:39.988Z,68.28
2023-05-08T10:01:44.176Z,67.83
2023-05-08T10:02:58.178Z,66.61
2023-05-08T10:04:01.986Z,66.05
2023-05-08T10:05:06.547Z,64.83
2023-05-08T10:06:16.324Z,64.15
2023-05-08T10:07:28.770Z,63.53
2023-05-08T10:08:31.715Z,64.21
2023-05-08T10:09:49.903Z,64.19
2023-05-08T10:10:55.494Z,64.01
2023-05-08T10:12:03.291Z,63.70
2023-05-08T10:13:08.014Z,61.98
2023-05-08T10:14:12.025Z,61.92
2023-05-08T10:15:17.749Z,62.73
2023-05-08T10:16:23.948Z,61.98
2023-05-08T10:17:29.748Z,60.32
2023-05-08T10:18:37.541Z,60.09
2023-05-08T10:19:47.028Z,59.00
2023-05-08T10:20:56.529Z,57.20
2023-05-08T10:22:06.605Z,56.28
2023-05-08T10:23:19.167Z,55.82
2023-05-08T10:24:28.860Z,54.27
2023-05-08T10:25:34.782Z,54.43
2023-05-08T10:27:02.719Z,54.90
2023-05-08T10:28:17.541Z,53.06
2023-05-08T10:29:30.766Z,54.19
2023-05-08T10:30:44.609Z,54.03
2023-05-08T10:32:00.199Z,55.94
2023-05-08T10:33:28.010Z,55.24
2023-05-08T10:34:43.915Z,55.51
2023-05-08T10:35:54.646Z,54.80
2023-05-08T10:37:04.354Z,53.07
2023-05-08T10:38:13.362Z,51.96
2023-05-08T10:39:19.399Z,55.24
2023-05-08T10:40:27.126Z,56.51
2023-05-08T10:41:37.682Z,56.21
2023-05-08T10:42:42.550Z,53.81
2023-05-08T10:43:44.989Z,52.42
2023-05-08T10:44:51.096Z,52.80
2023-05-08T10:45:55.162Z,52.75
2023-05-08T10:47:07.074Z,54.08
2023-05-08T10:48:21.462Z,52.26
2023-05-08T10:49:37.722Z,52.43
2023-05-08T10:51:01.945Z,53.02
2023-05-08T10:52:27.130Z,52.24
2023-05-08T10:53:40.165Z,50.59
2023-05-08T10:55:37.370Z,50.50
2023-05-08T10:56:43.597Z,48.63
2023-05-08T10:58:27.713Z,48.43
2023-05-08T10:59:40.810Z,47.50
2023-05-08T11:01:16.010Z,48.01
2023-05-08T11:02:36.995Z,47.90
2023-05-08T11:03:46.208Z,47.33
2023-05-08T11:04:54.968Z,46.44
2023-05-08T11:06:02.869Z,47.98
2023-05-08T11:07:08.722Z,47.49
2023-05-08T11:08:17.948Z,47.01
2023-05-08T11:09:25.350Z,47.39
2023-05-08T11:10:33.688Z,47.26
2023-05-08T11:11:55.535Z,46.66
2023-05-08T11:13:02.292Z,48.15
2023-05-08T11:14:14.169Z,48.43
2023-05-08T11:15:41.728Z,48.48
2023-05-08T11:17:14.203Z,46.68
2023-05-08T11:18:18.094Z,49.71
2023-05-08T11:19:28.106Z,49.70
2023-05-08T11:20:45.989Z,48.21
2023-05-08T11:22:16.138Z,46.58
2023-05-08T11:23:37.394Z,46.50
2023-05-08T11:24:41.738Z,46.92
2023-05-08T11:25:55.234Z,48.64
2023-05-08T11:27:02.004Z,49.64
2023-05-08T11:28:19.862Z,49.52
2023-05-08T11:29:26.660Z,49.04
2023-05-08T11:30:40.044Z,47.49
2023-05-08T11:31:58.872Z,46.31
2023-05-08T11:33:21.668Z,45.52
2023-05-08T11:34:48.725Z,46.76
2023-05-08T11:36:07.760Z,46.52
2023-05-08T11:37:26.957Z,47.02
2023-05-08T11:38:33.993Z,45.91
2023-05-08T11:39:39.712Z,46.13
2023-05-08T11:40:54.720Z,46.15
2023-05-08T11:42:37.870Z,46.26
2023-05-08T11:44:25.479Z,45.72
2023-05-08T11:45:29.609Z,48.75
2023-05-08T11:46:43.455Z,49.94
2023-05-08T11:47:51.674Z,49.49
2023-05-08T11:49:04.011Z,48.77
2023-05-08T11:50:18.250Z,47.30
2023-05-08T11:51:35.147Z,45.19
2023-05-08T11:52:49.494Z,43.17
2023-05-08T11:53:55.581Z,43.23
2023-05-08T11:55:04.766Z,44.78
2023-05-08T11:56:10.490Z,47.66
2023-05-08T11:57:27.927Z,49.82
2023-05-08T11:58:38.533Z,47.01
2023-05-08T11:59:43.643Z,46.85
2023-05-08T12:00:47.144Z,48.83
2023-05-08T12:03:02.911Z,47.60
2023-05-08T12:04:11.036Z,45.22
2023-05-08T12:05:30.845Z,45.14
2023-05-08T12:06:45.105Z,44.85
2023-05-08T12:07:56.140Z,43.86
2023-05-08T12:09:01.380Z,43.87
2023-05-08T12:10:07.688Z,45.94
2023-05-08T12:11:11.585Z,45.91
2023-05-08T12:12:22.557Z,47.71
2023-05-08T12:13:37.268Z,48.37
2023-05-08T12:14:41.155Z,48.36
2023-05-08T12:15:46.647Z,47.94
2023-05-08T12:16:52.428Z,47.72
2023-05-08T12:18:05.859Z,45.82
2023-05-08T12:19:22.789Z,44.78
2023-05-08T12:20:25.915Z,45.57
2023-05-08T12:21:40.744Z,48.39
2023-05-08T12:22:58.004Z,48.38
2023-05-08T12:24:11.690Z,48.78
2023-05-08T12:25:19.086Z,49.38
2023-05-08T12:26:22.821Z,49.05
2023-05-08T12:27:31.474Z,47.92
2023-05-08T12:28:38.342Z,46.67
2023-05-08T12:29:49.816Z,47.68
2023-05-08T12:31:04.336Z,47.35
2023-05-08T12:32:09.262Z,46.68
2023-05-08T12:33:28.783Z,45.59
2023-05-08T12:34:34.337Z,46.31
2023-05-08T12:35:39.795Z,45.97
2023-05-08T12:36:43.154Z,46.67
2023-05-08T12:37:49.049Z,46.72
2023-05-08T12:39:02.878Z,46.74
2023-05-08T12:40:46.704Z,46.37
2023-05-08T12:42:29.989Z,47.20
2023-05-08T12:43:42.198Z,47.21
2023-05-08T12:44:56.507Z,46.82
2023-05-08T12:46:01.677Z,47.77
2023-05-08T12:47:09.836Z,50.24
2023-05-08T12:48:18.562Z,50.19
2023-05-08T12:49:29.482Z,49.38
2023-05-08T12:50:44.900Z,48.06
2023-05-08T12:51:48.016Z,47.09
2023-05-08T12:52:54.768Z,46.56
2023-05-08T12:54:08.507Z,47.34
2023-05-08T12:55:33.742Z,46.71
2023-05-08T12:56:47.615Z,47.20
2023-05-08T12:58:03.308Z,47.57
2023-05-08T12:59:10.346Z,46.30
2023-05-08T13:00:21.629Z,46.77
2023-05-08T13:01:30.418Z,47.14
2023-05-08T13:02:49.290Z,47.07
2023-05-08T13:04:02.265Z,47.09
2023-05-08T13:05:13.391Z,47.94
2023-05-08T13:06:29.445Z,46.74
2023-05-08T13:07:32.347Z,45.83
2023-05-08T13:08:51.247Z,44.87
2023-05-08T13:10:20.069Z,45.74
2023-05-08T13:11:33.589Z,44.07
2023-05-08T13:12:38.789Z,44.23
2023-05-08T13:13:51.101Z,44.17
2023-05-08T13:15:16.654Z,44.46
2023-05-08T13:16:23.354Z,46.52
2023-05-08T13:17:37.498Z,47.20
2023-05-08T13:18:43.180Z,45.97
2023-05-08T13:19:48.090Z,45.32
2023-05-08T13:21:06.231Z,45.36
2023-05-08T13:22:10.930Z,45.67
2023-05-08T13:23:15.553Z,46.65
2023-05-08T13:24:17.863Z,45.79
2023-05-08T13:25:21.345Z,44.68
2023-05-08T13:26:26.212Z,42.63
2023-05-08T13:27:30.899Z,41.34
2023-05-08T13:28:33.856Z,42.64
2023-05-08T13:29:44.498Z,43.51
2023-05-08T13:30:55.568Z,43.56
2023-05-08T13:32:00.170Z,42.59
2023-05-08T13:33:04.089Z,42.45
2023-05-08T13:34:07.389Z,41.92
2023-05-08T13:35:10.374Z,41.07
2023-05-08T13:36:14.032Z,41.10
2023-05-08T13:37:16.338Z,40.15
2023-05-08T13:38:19.637Z,39.09
2023-05-08T13:39:22.572Z,39.83
2023-05-08T13:40:26.567Z,38.83
2023-05-08T13:41:31.903Z,39.52
2023-05-08T13:42:38.409Z,39.51
2023-05-08T13:43:42.471Z,38.63
2023-05-08T13:44:47.175Z,39.84
2023-05-08T13:45:53.381Z,39.07
2023-05-08T13:47:00.793Z,39.24
2023-05-08T13:48:07.599Z,39.22
2023-05-08T13:49:13.392Z,40.03
2023-05-08T13:50:18.405Z,39.36
2023-05-08T13:51:22.837Z,39.86
2023-05-08T13:52:34.827Z,39.61
2023-05-08T13:53:49.865Z,39.83
2023-05-08T13:55:19.451Z,40.06
2023-05-08T13:56:23.548Z,39.56
2023-05-08T13:57:27.046Z,40.11
2023-05-08T13:58:38.693Z,40.21
2023-05-08T13:59:43.489Z,39.72
2023-05-08T14:00:53.930Z,39.48
2023-05-08T14:02:03.138Z,39.11
2023-05-08T14:03:12.224Z,39.41
2023-05-08T14:04:21.367Z,40.14
2023-05-08T14:05:35.327Z,40.49
2023-05-08T14:06:40.028Z,40.60
2023-05-08T14:07:46.073Z,40.34
2023-05-08T14:08:50.924Z,40.52
2023-05-08T14:09:57.098Z,40.06
2023-05-08T14:11:10.154Z,40.35
2023-05-08T14:12:24.855Z,39.42
2023-05-08T14:13:31.424Z,39.82
2023-05-08T14:14:45.620Z,40.08
2023-05-08T14:15:50.942Z,40.14
2023-05-08T14:17:01.523Z,40.43
2023-05-08T14:18:14.065Z,40.40
2023-05-08T14:19:26.050Z,40.44
2023-05-08T14:20:39.121Z,40.03